Terminal Aerodrome Forecast
Issued by NWS Shreveport, LA

Home | Current Version | Previous Version | Text Only | Print | Product List | Glossary On
Versions: 1 2 3 4 5 6 7 8 9 10 11 12 13 14 15 16 17 18 19
000
FTUS44 KSHV 212346
TAFELD
TAF
KELD 212346Z 2200/2224 VRB06KT P6SM VCTS SCT025CB BKN120 OVC250
      TEMPO 2200/2204 VRB15G30KT 2SM TSRA BR OVC025CB
     FM220400 19006KT P6SM VCTS SCT030CB BKN100
     FM220900 23009KT P6SM BKN250
     FM221500 26014G24KT P6SM BKN120 BKN250=

USA.gov is the U.S. government's official web portal to all federal, state and local government web resources and services.